Time;durP1;ratioP1;P1;durP2;ratioP2;P2;SDS_P1;SDS_P2;PMS_P1;PMS_P2;Temp;Humidity;BMP_temperature;BMP_pressure;BME280_temperature;BME280_humidity;BME280_pressure;Samples;Min_cycle;Max_cycle;Signal;HPM_P1;HPM_P2
2022/11/20 00:01:21;;;;;;;19.27;11.43;;;;;;;5.23;nan;97599.09;5033357;28;20228;-70
2022/11/20 00:03:48;;;;;;;13.60;9.63;;;;;;;5.30;nan;97597.31;5033216;28;20190;-70
2022/11/20 00:06:16;;;;;;;23.00;10.90;;;;;;;5.21;nan;97601.13;5033521;28;20206;-70
2022/11/20 00:08:43;;;;;;;154.47;15.93;;;;;;;5.06;nan;97597.81;5033200;28;20726;-70
2022/11/20 00:11:21;;;;;;;72.47;12.97;;;;;;;5.18;nan;97598.88;5033359;28;20233;-70
2022/11/20 00:13:50;;;;;;;177.53;17.63;;;;;;;5.10;nan;97602.50;5033166;28;20651;-70
2022/11/20 00:16:20;;;;;;;89.33;12.60;;;;;;;5.04;nan;97600.66;5033062;28;20209;-71
2022/11/20 00:18:46;;;;;;;52.80;11.57;;;;;;;5.15;nan;97601.94;5033281;28;20209;-70
2022/11/20 00:21:16;;;;;;;75.67;13.17;;;;;;;5.20;nan;97596.88;5033149;28;20229;-70
2022/11/20 00:23:43;;;;;;;22.37;10.93;;;;;;;5.23;nan;97596.47;5032991;28;20684;-70
2022/11/20 00:26:12;;;;;;;28.10;12.47;;;;;;;5.24;nan;97592.84;5033326;28;20209;-71
2022/11/20 00:28:38;;;;;;;30.40;11.63;;;;;;;5.23;nan;97588.56;5033242;28;20202;-71
2022/11/20 00:31:06;;;;;;;20.60;11.60;;;;;;;5.24;nan;97592.84;5033173;28;20255;-71
2022/11/20 00:33:34;;;;;;;16.73;11.00;;;;;;;5.24;nan;97585.72;5033361;28;20236;-71
2022/11/20 00:36:06;;;;;;;29.00;12.87;;;;;;;5.29;nan;97590.44;5033174;28;20209;-70
2022/11/20 00:38:33;;;;;;;22.77;11.70;;;;;;;5.30;nan;97590.22;5032968;28;20220;-70
2022/11/20 00:41:04;;;;;;;13.77;10.30;;;;;;;5.35;nan;97587.81;5034864;28;20225;-70
2022/11/20 00:43:31;;;;;;;14.97;11.53;;;;;;;5.32;nan;97593.47;5036641;28;20197;-70
2022/11/20 00:46:00;;;;;;;14.60;10.90;;;;;;;5.29;nan;97590.44;5036682;28;20212;-70
2022/11/20 00:48:27;;;;;;;16.27;11.43;;;;;;;5.26;nan;97596.09;5037349;28;20645;-71
2022/11/20 00:50:54;;;;;;;15.83;10.80;;;;;;;5.27;nan;97592.44;5036800;28;20222;-71
2022/11/20 00:53:21;;;;;;;14.13;10.80;;;;;;;5.28;nan;97588.78;5036866;28;20206;-71
2022/11/20 00:56:02;;;;;;;12.23;10.00;;;;;;;5.20;nan;97584.50;5036773;28;20293;-71
2022/11/20 00:58:33;;;;;;;10.93;9.40;;;;;;;5.33;nan;97591.66;5036481;28;20206;-70
2022/11/20 01:01:04;;;;;;;11.70;9.63;;;;;;;5.33;nan;97591.66;5036327;28;20226;-70
2022/11/20 01:03:34;;;;;;;10.97;9.73;;;;;;;5.30;nan;97586.78;5036540;28;20206;-71
2022/11/20 01:06:06;;;;;;;7.87;6.93;;;;;;;5.43;nan;97584.97;5037078;28;20216;-70
2022/11/20 01:08:34;;;;;;;8.47;7.30;;;;;;;5.37;nan;97595.50;5036573;28;20192;-70
2022/11/20 01:11:06;;;;;;;7.50;6.27;;;;;;;5.37;nan;97584.97;5036392;28;20226;-70
2022/11/20 01:13:39;;;;;;;7.10;5.50;;;;;;;5.28;nan;97591.41;5036460;28;20200;-70
2022/11/20 01:16:17;;;;;;;7.67;5.37;;;;;;;5.34;nan;97593.28;5036470;28;20190;-70
2022/11/20 01:18:46;;;;;;;7.37;5.67;;;;;;;5.31;nan;97606.84;5036344;28;20206;-71
2022/11/20 01:21:19;;;;;;;6.23;5.63;;;;;;;5.28;nan;97600.16;5036171;28;20236;-71
2022/11/20 01:23:46;;;;;;;5.97;5.33;;;;;;;5.32;nan;97608.47;5036031;28;20206;-70
2022/11/20 01:26:17;;;;;;;5.33;4.80;;;;;;;5.29;nan;97609.66;5036300;28;20202;-70
2022/11/20 01:28:44;;;;;;;5.40;4.60;;;;;;;5.32;nan;97611.09;5035801;28;20210;-70
2022/11/20 01:31:22;;;;;;;4.47;3.93;;;;;;;5.31;nan;97610.31;5036148;28;20225;-70
2022/11/20 01:33:51;;;;;;;4.30;3.73;;;;;;;5.34;nan;97617.00;5036109;28;20201;-70
2022/11/20 01:36:19;;;;;;;4.70;3.40;;;;;;;5.30;nan;97615.75;5035991;28;20202;-70
2022/11/20 01:38:45;;;;;;;4.30;3.47;;;;;;;5.23;nan;97617.53;5036075;28;20202;-70
2022/11/20 01:43:20;;;;;;;3.80;3.40;;;;;;;5.21;nan;97622.22;5035537;28;20225;-70
2022/11/20 01:44:00;;;;;;;5.40;2.90;;;;;;;5.21;nan;97614.31;5035501;28;20256;-71
2022/11/20 01:46:27;;;;;;;4.00;2.97;;;;;;;5.19;nan;97618.94;5036119;28;20214;-71
2022/11/20 01:49:23;;;;;;;4.37;3.60;;;;;;;5.23;nan;97614.91;5036122;28;20235;-71
2022/11/20 01:51:53;;;;;;;4.53;3.03;;;;;;;5.19;nan;97611.03;5034871;28;20233;-70
2022/11/20 01:54:24;;;;;;;4.17;3.07;;;;;;;5.25;nan;97605.78;5035766;28;20200;-70
2022/11/20 01:56:55;;;;;;;3.27;2.77;;;;;;;5.29;nan;97614.94;5036030;28;20216;-70
2022/11/20 01:59:25;;;;;;;4.30;3.40;;;;;;;5.36;nan;97604.44;5035922;28;20194;-70
2022/11/20 02:01:51;;;;;;;3.60;3.20;;;;;;;5.41;nan;97609.91;5035517;28;20226;-70
2022/11/20 02:04:19;;;;;;;4.13;3.03;;;;;;;5.40;nan;97613.56;5035524;28;20202;-71
2022/11/20 02:06:50;;;;;;;4.27;2.80;;;;;;;5.42;nan;97615.00;5035520;28;20202;-71
2022/11/20 02:09:17;;;;;;;5.37;3.03;;;;;;;5.37;nan;97617.41;5035548;28;20195;-70
2022/11/20 02:11:43;;;;;;;3.33;2.90;;;;;;;5.44;nan;97617.44;5035047;28;20232;-70
2022/11/20 02:14:10;;;;;;;4.17;3.10;;;;;;;5.38;nan;97619.03;5035438;28;20206;-70
2022/11/20 02:16:45;;;;;;;2.47;2.27;;;;;;;5.45;nan;97624.34;5035116;28;20202;-70
2022/11/20 02:19:24;;;;;;;3.60;2.40;;;;;;;5.49;nan;97626.41;5035352;28;20190;-70
2022/11/20 02:22:12;;;;;;;2.60;2.33;;;;;;;5.52;nan;97625.19;5034870;28;20241;-70
2022/11/20 02:24:38;;;;;;;2.60;1.90;;;;;;;5.52;nan;97622.53;5034947;28;20194;-70
2022/11/20 02:27:14;;;;;;;2.50;2.20;;;;;;;5.47;nan;97617.84;5035084;28;20292;-70
2022/11/20 02:30:04;;;;;;;2.20;2.00;;;;;;;5.49;nan;97625.56;5035320;28;20205;-71
2022/11/20 02:32:33;;;;;;;2.60;2.30;;;;;;;5.51;nan;97623.53;5034692;28;20551;-71
2022/11/20 02:35:27;;;;;;;3.00;2.30;;;;;;;5.50;nan;97627.19;5035059;28;20201;-71
2022/11/20 02:37:56;;;;;;;2.50;2.30;;;;;;;5.42;nan;97614.19;5027349;28;20727;-71
2022/11/20 02:40:23;;;;;;;5.57;3.20;;;;;;;5.33;nan;97625.94;5034685;28;20226;-71
2022/11/20 02:42:56;;;;;;;3.33;3.00;;;;;;;5.40;nan;97621.47;5034763;28;20206;-71
2022/11/20 02:45:24;;;;;;;3.77;2.77;;;;;;;5.47;nan;97612.59;5034812;28;20198;-71
2022/11/20 02:47:51;;;;;;;3.23;2.60;;;;;;;5.41;nan;97608.09;5034359;28;20559;-71
2022/11/20 02:50:17;;;;;;;2.87;2.37;;;;;;;5.49;nan;97613.22;5034326;28;20209;-71
2022/11/20 02:52:44;;;;;;;2.57;2.00;;;;;;;5.52;nan;97617.28;5034076;28;20673;-71
2022/11/20 02:55:10;;;;;;;2.40;2.20;;;;;;;5.57;nan;97615.66;5034556;28;20206;-71
2022/11/20 02:57:36;;;;;;;2.70;2.20;;;;;;;5.65;nan;97617.31;5034375;28;20232;-71
2022/11/20 03:00:04;;;;;;;2.23;1.97;;;;;;;5.61;nan;97613.44;5034550;28;20248;-72
2022/11/20 03:02:32;;;;;;;3.87;2.20;;;;;;;5.64;nan;97620.94;5034095;28;20296;-71
2022/11/20 03:04:58;;;;;;;3.93;2.20;;;;;;;5.61;nan;97624.00;5033978;28;20209;-71
2022/11/20 03:07:25;;;;;;;3.63;2.00;;;;;;;5.69;nan;97618.53;5034363;28;20208;-71
2022/11/20 03:09:51;;;;;;;2.47;2.27;;;;;;;5.62;nan;97617.72;5034202;28;20202;-70
2022/11/20 03:12:17;;;;;;;2.53;2.33;;;;;;;5.69;nan;97613.25;5033832;28;20727;-70
2022/11/20 03:14:44;;;;;;;2.33;1.90;;;;;;;5.69;nan;97618.53;5034200;28;20209;-70
2022/11/20 03:17:11;;;;;;;2.70;2.07;;;;;;;5.69;nan;97613.25;5034614;28;20222;-70
2022/11/20 03:19:37;;;;;;;4.20;2.20;;;;;;;5.70;nan;97613.06;5033871;28;20202;-70
2022/11/20 03:22:03;;;;;;;2.23;1.80;;;;;;;5.64;nan;97610.41;5033928;28;20248;-70
2022/11/20 03:24:30;;;;;;;4.27;3.10;;;;;;;5.57;nan;97607.75;5033823;28;20216;-70
2022/11/20 03:26:56;;;;;;;2.23;2.00;;;;;;;5.62;nan;97609.78;5033661;28;20206;-70
2022/11/20 03:29:22;;;;;;;2.80;2.37;;;;;;;5.64;nan;97608.59;5034260;28;20206;-70
2022/11/20 03:31:49;;;;;;;2.47;1.73;;;;;;;5.55;nan;97598.41;5033895;28;20226;-70
2022/11/20 03:34:15;;;;;;;3.53;2.40;;;;;;;5.54;nan;97597.63;5033934;28;20214;-70
2022/11/20 03:36:43;;;;;;;2.87;2.20;;;;;;;5.51;nan;97600.63;5033780;28;20284;-70
2022/11/20 03:39:10;;;;;;;2.67;2.40;;;;;;;5.47;nan;97598.59;5033372;28;20226;-70
2022/11/20 03:41:39;;;;;;;3.27;2.30;;;;;;;5.46;nan;97602.22;5033438;28;20731;-70
2022/11/20 03:44:08;;;;;;;2.93;2.70;;;;;;;5.49;nan;97596.56;5033507;28;20210;-70
2022/11/20 03:46:35;;;;;;;2.43;2.23;;;;;;;5.49;nan;97592.13;5033689;28;20214;-71
2022/11/20 03:49:02;;;;;;;2.97;2.67;;;;;;;5.53;nan;97605.72;5033728;28;20202;-70
2022/11/20 03:51:36;;;;;;;4.17;2.47;;;;;;;5.52;nan;97599.63;5033641;28;20225;-70
2022/11/20 03:54:06;;;;;;;2.60;2.23;;;;;;;5.52;nan;97590.91;5033597;28;20212;-70
2022/11/20 03:56:36;;;;;;;2.73;2.43;;;;;;;5.43;nan;97589.47;5033676;28;20212;-71
2022/11/20 03:59:02;;;;;;;2.83;2.40;;;;;;;5.37;nan;97596.31;5033555;28;20228;-70
2022/11/20 04:01:32;;;;;;;3.00;2.70;;;;;;;5.35;nan;97597.53;5033449;28;20227;-70
2022/11/20 04:03:59;;;;;;;4.03;2.80;;;;;;;5.30;nan;97589.41;5033579;28;20210;-70
2022/11/20 04:06:28;;;;;;;3.20;2.50;;;;;;;5.34;nan;97599.34;5033427;28;20206;-70
2022/11/20 04:08:56;;;;;;;3.03;2.77;;;;;;;5.30;nan;97599.94;5033349;28;20205;-70
2022/11/20 04:11:25;;;;;;;3.40;3.10;;;;;;;5.30;nan;97594.69;5033331;28;20226;-70
2022/11/20 04:13:55;;;;;;;2.90;2.70;;;;;;;5.31;nan;97596.31;5032974;28;20673;-71
2022/11/20 04:16:23;;;;;;;3.67;2.70;;;;;;;5.33;nan;97594.28;5035350;28;20691;-70
2022/11/20 04:18:54;;;;;;;4.43;3.20;;;;;;;5.37;nan;97590.22;5037072;28;20696;-71
2022/11/20 04:21:21;;;;;;;3.40;2.37;;;;;;;5.35;nan;97585.19;5037062;28;20230;-70
2022/11/20 04:23:47;;;;;;;2.50;2.30;;;;;;;5.36;nan;97589.44;5037387;28;20200;-70
2022/11/20 04:26:14;;;;;;;3.13;2.70;;;;;;;5.29;nan;97582.53;5037166;28;20221;-70
2022/11/20 04:28:40;;;;;;;3.23;2.90;;;;;;;5.37;nan;97584.97;5037079;28;20205;-70
2022/11/20 04:31:13;;;;;;;3.63;2.60;;;;;;;5.38;nan;97587.41;5037109;28;20248;-70
2022/11/20 04:33:40;;;;;;;2.90;2.70;;;;;;;5.33;nan;97581.13;5037296;28;20186;-70
2022/11/20 04:36:11;;;;;;;3.00;2.70;;;;;;;5.33;nan;97591.66;5037106;28;20212;-70
2022/11/20 04:38:38;;;;;;;3.87;2.90;;;;;;;5.25;nan;97592.63;5037229;28;20216;-70
2022/11/20 04:41:06;;;;;;;3.10;2.80;;;;;;;5.31;nan;97586.59;5037039;28;20320;-70
2022/11/20 04:43:34;;;;;;;3.47;2.67;;;;;;;5.32;nan;97580.28;5036632;28;20216;-70
2022/11/20 04:46:02;;;;;;;3.27;2.97;;;;;;;5.29;nan;97585.16;5036945;28;20206;-71
2022/11/20 04:48:29;;;;;;;4.10;2.80;;;;;;;5.28;nan;97578.25;5036658;28;20570;-70
2022/11/20 04:50:56;;;;;;;4.13;2.73;;;;;;;5.30;nan;97579.66;5036781;28;20222;-70
2022/11/20 04:53:23;;;;;;;3.13;2.80;;;;;;;5.28;nan;97580.88;5036787;28;20210;-70
2022/11/20 04:55:50;;;;;;;3.93;2.50;;;;;;;5.37;nan;97579.69;5036302;28;20214;-71
2022/11/20 04:58:16;;;;;;;4.53;2.60;;;;;;;5.29;nan;97582.53;5036788;28;20221;-70
2022/11/20 05:00:43;;;;;;;4.80;2.87;;;;;;;5.32;nan;97582.09;5036741;28;20232;-70
2022/11/20 05:03:09;;;;;;;4.00;2.63;;;;;;;5.30;nan;97582.31;5036392;28;20669;-70
2022/11/20 05:05:36;;;;;;;2.97;2.50;;;;;;;5.33;nan;97578.50;5036639;28;20705;-70
2022/11/20 05:08:02;;;;;;;2.70;2.50;;;;;;;5.39;nan;97578.47;5036392;28;20209;-70
2022/11/20 05:10:29;;;;;;;3.17;2.57;;;;;;;5.41;nan;97575.66;5036215;28;20581;-71
2022/11/20 05:12:55;;;;;;;2.70;2.50;;;;;;;5.40;nan;97574.84;5036365;28;20214;-70
2022/11/20 05:15:22;;;;;;;3.77;2.63;;;;;;;5.43;nan;97584.19;5036426;28;20255;-71
2022/11/20 05:17:52;;;;;;;2.53;2.20;;;;;;;5.46;nan;97574.06;5037085;28;20221;-70
2022/11/20 05:20:19;;;;;;;3.37;3.00;;;;;;;5.49;nan;97576.31;5036326;28;20210;-70
2022/11/20 05:22:46;;;;;;;3.30;3.00;;;;;;;5.50;nan;97574.47;5036397;28;20214;-70
2022/11/20 05:25:13;;;;;;;3.30;2.43;;;;;;;5.53;nan;97574.06;5036612;28;20202;-70
2022/11/20 05:27:39;;;;;;;3.73;2.40;;;;;;;5.59;nan;97578.53;5036503;28;20664;-71
2022/11/20 05:30:07;;;;;;;2.90;2.03;;;;;;;5.63;nan;97585.03;5035816;28;20212;-71
2022/11/20 05:32:33;;;;;;;2.63;2.40;;;;;;;5.56;nan;97578.97;5036185;28;20216;-70
2022/11/20 05:34:59;;;;;;;2.90;2.40;;;;;;;5.57;nan;97575.31;5036022;28;20202;-70
2022/11/20 05:37:26;;;;;;;2.70;2.13;;;;;;;5.58;nan;97582.19;5035867;28;20212;-70
2022/11/20 05:39:52;;;;;;;2.60;2.13;;;;;;;5.59;nan;97582.00;5035646;28;20572;-71
2022/11/20 05:42:31;;;;;;;4.67;2.43;;;;;;;5.61;nan;97579.19;5035757;28;20325;-70
2022/11/20 05:45:02;;;;;;;2.60;2.30;;;;;;;5.62;nan;97580.78;5036681;28;20196;-71
2022/11/20 05:47:32;;;;;;;2.73;2.50;;;;;;;5.58;nan;97584.84;5035941;28;20194;-70
2022/11/20 05:49:58;;;;;;;3.37;2.23;;;;;;;5.65;nan;97575.91;5035493;28;20672;-70
2022/11/20 05:52:24;;;;;;;2.40;2.03;;;;;;;5.61;nan;97585.25;5035333;28;20771;-70
2022/11/20 05:54:51;;;;;;;2.63;1.93;;;;;;;5.63;nan;97577.97;5035378;28;20206;-70
2022/11/20 05:57:17;;;;;;;2.63;2.23;;;;;;;5.70;nan;97577.97;5035441;28;20216;-70
2022/11/20 05:59:44;;;;;;;4.60;2.10;;;;;;;5.68;nan;97577.34;5035731;28;20208;-70
2022/11/20 06:02:10;;;;;;;3.73;2.30;;;;;;;5.67;nan;97576.56;5035320;28;20237;-70
2022/11/20 06:04:36;;;;;;;2.53;2.33;;;;;;;5.73;nan;97582.84;5036148;28;20548;-70
2022/11/20 06:07:03;;;;;;;2.40;2.20;;;;;;;5.72;nan;97575.94;5035090;28;20208;-70
2022/11/20 06:09:29;;;;;;;2.50;2.30;;;;;;;5.78;nan;97580.41;5035420;28;20208;-70
2022/11/20 06:11:56;;;;;;;4.13;2.50;;;;;;;5.74;nan;97579.22;5035259;28;20222;-71
2022/11/20 06:14:22;;;;;;;2.50;2.30;;;;;;;5.85;nan;97584.75;5035186;28;20205;-70
2022/11/20 06:16:49;;;;;;;2.17;1.80;;;;;;;5.86;nan;97582.91;5035503;28;20217;-70
2022/11/20 06:19:15;;;;;;;3.43;1.93;;;;;;;5.83;nan;97578.84;5035230;28;20229;-71
2022/11/20 06:21:42;;;;;;;3.73;2.10;;;;;;;5.82;nan;97574.56;5034740;28;20229;-71
2022/11/20 06:24:10;;;;;;;2.73;2.00;;;;;;;5.84;nan;97555.91;5035242;28;20280;-71
2022/11/20 06:26:36;;;;;;;3.30;2.03;;;;;;;5.78;nan;97572.50;5035161;28;20216;-70
2022/11/20 06:29:03;;;;;;;2.63;2.17;;;;;;;5.79;nan;97564.38;5035141;28;20198;-70
2022/11/20 06:31:32;;;;;;;2.47;1.80;;;;;;;5.79;nan;97563.59;5034994;28;20312;-71
2022/11/20 06:33:58;;;;;;;2.60;2.00;;;;;;;5.70;nan;97570.84;5034927;28;20336;-70
2022/11/20 06:36:25;;;;;;;2.70;2.23;;;;;;;5.76;nan;97559.53;5034580;28;20695;-71
2022/11/20 06:38:51;;;;;;;3.37;2.30;;;;;;;5.71;nan;97558.50;5034065;28;20222;-71
2022/11/20 06:41:21;;;;;;;2.20;2.00;;;;;;;5.75;nan;97563.16;5034706;28;20225;-70
2022/11/20 06:43:47;;;;;;;2.20;2.00;;;;;;;5.72;nan;97565.38;5034996;28;20210;-70
2022/11/20 06:46:17;;;;;;;2.17;2.00;;;;;;;5.77;nan;97565.59;5034698;28;20569;-70
2022/11/20 06:48:43;;;;;;;1.97;1.77;;;;;;;5.80;nan;97576.63;5034704;28;20293;-70
2022/11/20 06:51:10;;;;;;;1.90;1.70;;;;;;;5.79;nan;97568.88;5034507;28;20226;-71
2022/11/20 06:53:37;;;;;;;2.03;1.70;;;;;;;5.85;nan;97576.00;5034628;28;20224;-70
2022/11/20 06:56:04;;;;;;;2.47;1.57;;;;;;;5.88;nan;97579.03;5034651;28;20226;-70
2022/11/20 06:58:32;;;;;;;2.07;1.60;;;;;;;5.88;nan;97578.25;5034510;28;20221;-70
2022/11/20 07:01:11;;;;;;;2.83;1.70;;;;;;;5.85;nan;97573.38;5034366;28;20240;-71
2022/11/20 07:03:37;;;;;;;1.50;1.40;;;;;;;5.90;nan;97584.13;5034486;28;20550;-71
2022/11/20 07:06:05;;;;;;;3.57;1.70;;;;;;;5.85;nan;97581.28;5034087;28;20213;-70
2022/11/20 07:08:32;;;;;;;2.33;1.43;;;;;;;5.87;nan;97587.16;5034584;28;20212;-70
2022/11/20 07:11:00;;;;;;;1.70;1.60;;;;;;;5.93;nan;97586.38;5034210;28;20229;-70
2022/11/20 07:13:28;;;;;;;1.40;1.30;;;;;;;5.93;nan;97586.38;5034250;28;20293;-70
2022/11/20 07:15:56;;;;;;;1.60;1.37;;;;;;;5.96;nan;97585.94;5034226;28;20220;-71
2022/11/20 07:18:22;;;;;;;1.83;1.40;;;;;;;5.98;nan;97581.28;5033956;28;20225;-70
2022/11/20 07:20:48;;;;;;;1.73;1.30;;;;;;;6.01;nan;97578.25;5034091;28;20226;-70
2022/11/20 07:23:15;;;;;;;2.37;1.67;;;;;;;6.01;nan;97586.19;5033831;28;20214;-70
2022/11/20 07:25:41;;;;;;;2.10;1.70;;;;;;;6.03;nan;97581.50;5033791;28;20205;-70
2022/11/20 07:28:08;;;;;;;1.57;1.47;;;;;;;6.10;nan;97577.84;5034076;28;20202;-70
2022/11/20 07:30:34;;;;;;;2.13;1.80;;;;;;;6.08;nan;97585.16;5033955;28;20276;-71
2022/11/20 07:33:00;;;;;;;1.57;1.40;;;;;;;6.10;nan;97593.69;5033974;28;20289;-70
2022/11/20 07:35:27;;;;;;;1.70;1.60;;;;;;;6.11;nan;97594.50;5034446;28;20206;-70
2022/11/20 07:37:53;;;;;;;2.90;1.47;;;;;;;6.07;nan;97596.72;5033814;28;20232;-70
2022/11/20 07:40:20;;;;;;;1.50;1.33;;;;;;;6.08;nan;97595.72;5033860;28;20224;-70
2022/11/20 07:42:51;;;;;;;2.83;1.67;;;;;;;6.18;nan;97600.59;5033739;28;20206;-70
2022/11/20 07:45:18;;;;;;;2.10;1.53;;;;;;;6.26;nan;97598.56;5033325;28;20216;-70
2022/11/20 07:47:45;;;;;;;2.07;1.50;;;;;;;6.31;nan;97595.31;5033302;28;20567;-70
2022/11/20 07:50:12;;;;;;;1.60;1.50;;;;;;;6.27;nan;97592.28;5033611;28;20210;-70
2022/11/20 07:52:38;;;;;;;2.30;1.60;;;;;;;6.30;nan;97594.53;5033409;28;20206;-70
2022/11/20 07:55:05;;;;;;;1.70;1.60;;;;;;;6.28;nan;97601.81;5033551;28;20573;-70
2022/11/20 07:57:32;;;;;;;2.03;1.80;;;;;;;6.26;nan;97590.66;5033299;28;20205;-70
2022/11/20 07:59:58;;;;;;;1.90;1.60;;;;;;;6.31;nan;97600.59;5033445;28;20260;-70
2022/11/20 08:02:25;;;;;;;2.73;1.80;;;;;;;6.29;nan;97607.91;5033336;28;20226;-70
2022/11/20 08:04:52;;;;;;;2.00;1.70;;;;;;;6.28;nan;97604.44;5033110;28;20208;-70
2022/11/20 08:07:18;;;;;;;1.60;1.37;;;;;;;6.41;nan;97608.91;5033435;28;20206;-70
2022/11/20 08:09:45;;;;;;;2.17;1.30;;;;;;;6.43;nan;97617.47;5033460;28;20212;-70
2022/11/20 08:15:07;;;;;;;2.53;1.30;;;;;;;6.38;nan;97618.06;5033450;28;20316;-70
2022/11/20 08:17:33;;;;;;;1.57;1.10;;;;;;;6.46;nan;97606.47;5032953;28;20640;-70
2022/11/20 08:19:59;;;;;;;1.40;1.30;;;;;;;6.55;nan;97615.81;5032901;28;20221;-70
2022/11/20 08:22:26;;;;;;;1.43;1.33;;;;;;;6.51;nan;97620.69;5032868;28;20243;-70
2022/11/20 08:24:52;;;;;;;1.00;1.00;;;;;;;6.48;nan;97617.66;5033269;28;20568;-70
2022/11/20 08:27:18;;;;;;;1.57;1.10;;;;;;;6.58;nan;97618.06;5033303;28;20208;-71
2022/11/20 08:29:45;;;;;;;2.07;1.40;;;;;;;6.65;nan;97613.59;5033274;28;20198;-70
2022/11/20 08:32:11;;;;;;;1.63;1.00;;;;;;;6.70;nan;97619.88;5033184;28;20222;-71
2022/11/20 08:34:37;;;;;;;1.07;1.00;;;;;;;6.75;nan;97619.25;5032895;28;20212;-71
2022/11/20 08:37:04;;;;;;;1.10;0.90;;;;;;;6.80;nan;97619.47;5032598;28;20209;-71
2022/11/20 08:39:30;;;;;;;0.90;0.90;;;;;;;6.87;nan;97629.00;5033068;28;20221;-70
2022/11/20 08:41:57;;;;;;;1.67;0.83;;;;;;;6.93;nan;97614.16;5033046;28;20226;-70
2022/11/20 08:44:24;;;;;;;1.17;0.80;;;;;;;7.04;nan;97618.78;5032698;28;20206;-70
2022/11/20 08:46:50;;;;;;;1.57;0.80;;;;;;;7.16;nan;97617.16;5033143;28;20210;-71
2022/11/20 08:49:17;;;;;;;0.90;0.80;;;;;;;7.24;nan;97624.84;5032928;28;20209;-71
2022/11/20 08:51:44;;;;;;;0.90;0.90;;;;;;;7.35;nan;97624.19;5032511;28;20317;-71
2022/11/20 08:54:11;;;;;;;2.50;0.77;;;;;;;7.35;nan;97626.84;5033042;28;20206;-71
2022/11/20 08:56:37;;;;;;;0.93;0.87;;;;;;;7.35;nan;97637.41;5032614;28;20669;-70
2022/11/20 08:59:04;;;;;;;1.17;0.90;;;;;;;7.33;nan;97634.19;5032892;28;20244;-70
2022/11/20 09:01:30;;;;;;;0.70;0.70;;;;;;;7.40;nan;97630.50;5033419;28;20232;-70
2022/11/20 09:03:57;;;;;;;0.80;0.80;;;;;;;7.49;nan;97639.81;5036383;28;20206;-70
2022/11/20 09:06:24;;;;;;;0.77;0.70;;;;;;;7.42;nan;97628.44;5036557;28;20205;-70
2022/11/20 09:08:54;;;;;;;0.73;0.67;;;;;;;7.50;nan;97622.09;5036405;28;20208;-71
2022/11/20 09:11:21;;;;;;;1.07;0.50;;;;;;;7.53;nan;97630.44;5036326;28;20226;-70
2022/11/20 09:13:47;;;;;;;1.37;0.63;;;;;;;7.57;nan;97636.13;5036371;28;20212;-71
2022/11/20 09:16:13;;;;;;;0.87;0.50;;;;;;;7.50;nan;97636.13;5036141;28;20646;-70
2022/11/20 09:18:40;;;;;;;0.50;0.50;;;;;;;7.50;nan;97640.59;5036319;28;20232;-70
2022/11/20 09:21:11;;;;;;;1.17;0.60;;;;;;;7.55;nan;97641.59;5036244;28;20226;-70
2022/11/20 09:23:38;;;;;;;0.70;0.70;;;;;;;7.51;nan;97644.91;5036020;28;20196;-71
2022/11/20 09:26:06;;;;;;;0.50;0.50;;;;;;;7.52;nan;97649.16;5035871;28;20224;-70
2022/11/20 09:28:33;;;;;;;0.60;0.60;;;;;;;7.56;nan;97650.38;5035887;28;20202;-70
2022/11/20 09:31:00;;;;;;;0.60;0.60;;;;;;;7.52;nan;97647.31;5035824;28;20593;-70
2022/11/20 09:33:27;;;;;;;0.50;0.50;;;;;;;7.50;nan;97654.66;5035917;28;20202;-71
2022/11/20 09:35:53;;;;;;;0.50;0.50;;;;;;;7.53;nan;97653.41;5036059;28;20228;-70
2022/11/20 09:38:20;;;;;;;0.90;0.57;;;;;;;7.50;nan;97653.81;5035948;28;20206;-70
2022/11/20 09:41:03;;;;;;;1.77;0.63;;;;;;;7.41;nan;97652.44;5035112;28;20245;-70
2022/11/20 09:43:45;;;;;;;0.63;0.53;;;;;;;7.44;nan;97660.78;5035447;28;20196;-70
2022/11/20 09:46:40;;;;;;;0.60;0.60;;;;;;;7.45;nan;97658.94;5035808;28;20194;-71
2022/11/20 09:49:33;;;;;;;0.60;0.50;;;;;;;7.43;nan;97668.91;5035785;28;20187;-70
2022/11/20 09:52:09;;;;;;;0.50;0.50;;;;;;;7.42;nan;97659.38;5035702;28;20236;-70
2022/11/20 09:54:40;;;;;;;0.50;0.50;;;;;;;7.43;nan;97667.06;5035648;28;20190;-71
2022/11/20 09:57:12;;;;;;;0.80;0.50;;;;;;;7.39;nan;97681.75;5034264;28;20205;-70
2022/11/20 09:59:43;;;;;;;0.47;0.47;;;;;;;7.34;nan;97672.81;5035561;28;20236;-70
2022/11/20 10:02:24;;;;;;;0.37;0.37;;;;;;;7.36;nan;97657.53;5035383;28;20226;-70
2022/11/20 10:05:21;;;;;;;0.67;0.40;;;;;;;7.22;nan;97650.66;5035534;28;20194;-70
2022/11/20 10:08:08;;;;;;;0.30;0.30;;;;;;;7.15;nan;97661.25;5035371;28;20202;-71
2022/11/20 10:10:46;;;;;;;0.50;0.50;;;;;;;7.16;nan;97665.53;5035317;28;20272;-72
2022/11/20 10:13:35;;;;;;;1.03;0.50;;;;;;;7.12;nan;97660.88;5034234;28;20274;-70
2022/11/20 10:16:02;;;;;;;0.40;0.40;;;;;;;7.12;nan;97668.78;5035739;28;20230;-70
2022/11/20 10:18:53;;;;;;;0.50;0.50;;;;;;;7.10;nan;97665.56;5035122;28;20208;-71
2022/11/20 10:21:25;;;;;;;0.50;0.50;;;;;;;7.10;nan;97674.28;5034882;28;20233;-71
2022/11/20 10:23:51;;;;;;;0.50;0.50;;;;;;;7.06;nan;97675.72;5035049;28;20626;-70
2022/11/20 10:26:36;;;;;;;1.17;0.60;;;;;;;7.07;nan;97684.47;5035052;28;20205;-71
2022/11/20 10:29:16;;;;;;;0.60;0.50;;;;;;;6.99;nan;97687.31;5034631;28;20669;-70
2022/11/20 10:31:49;;;;;;;1.23;0.70;;;;;;;6.86;nan;97680.22;5034874;28;20248;-70
2022/11/20 10:34:32;;;;;;;0.70;0.60;;;;;;;6.83;nan;97685.09;5035410;28;20194;-71
2022/11/20 10:37:10;;;;;;;0.67;0.60;;;;;;;6.69;nan;97684.28;5034603;28;20194;-70
2022/11/20 10:39:51;;;;;;;0.80;0.50;;;;;;;6.68;nan;97684.47;5034008;28;20216;-70
2022/11/20 10:42:32;;;;;;;0.60;0.60;;;;;;;6.59;nan;97675.97;5034544;28;20261;-70
2022/11/20 10:45:10;;;;;;;0.60;0.60;;;;;;;6.66;nan;97682.03;5035093;28;20190;-71
2022/11/20 10:47:37;;;;;;;0.60;0.60;;;;;;;6.69;nan;97684.28;5034609;28;20186;-70
2022/11/20 10:50:10;;;;;;;0.60;0.60;;;;;;;6.66;nan;97681.25;5034567;28;20202;-72
2022/11/20 10:52:48;;;;;;;0.70;0.70;;;;;;;6.44;nan;97669.25;5034373;28;20189;-70
2022/11/20 10:55:30;;;;;;;1.00;0.90;;;;;;;6.51;nan;97675.34;5034269;28;20197;-70
2022/11/20 10:58:26;;;;;;;0.83;0.80;;;;;;;6.48;nan;97667.81;5034514;28;20551;-70
2022/11/20 11:00:52;;;;;;;0.63;0.63;;;;;;;6.65;nan;97671.69;5033966;28;20629;-70
2022/11/20 11:03:27;;;;;;;0.80;0.80;;;;;;;6.65;nan;97654.00;5033818;28;20542;-70
2022/11/20 11:06:21;;;;;;;1.70;0.90;;;;;;;6.72;nan;97661.94;5034007;28;20568;-70
2022/11/20 11:08:50;;;;;;;1.10;0.70;;;;;;;6.80;nan;97659.09;5033136;28;20218;-70
2022/11/20 11:11:32;;;;;;;1.53;0.70;;;;;;;6.80;nan;97659.91;5034215;28;20225;-70
2022/11/20 11:14:11;;;;;;;0.93;0.80;;;;;;;6.84;nan;97665.59;5034149;28;20214;-70
2022/11/20 11:16:50;;;;;;;0.60;0.60;;;;;;;6.82;nan;97659.69;5034233;28;20232;-70
2022/11/20 11:19:17;;;;;;;1.10;1.10;;;;;;;6.77;nan;97652.38;5034096;28;20223;-70
2022/11/20 11:22:17;;;;;;;1.70;1.00;;;;;;;6.79;nan;97636.34;5033893;28;20241;-70
2022/11/20 11:24:53;;;;;;;0.70;0.70;;;;;;;6.83;nan;97625.13;5032034;28;20240;-70
2022/11/20 11:27:19;;;;;;;0.90;0.90;;;;;;;6.99;nan;97622.06;5033891;28;20196;-70
2022/11/20 11:29:46;;;;;;;0.97;0.97;;;;;;;7.10;nan;97625.91;5033742;28;20202;-70
2022/11/20 11:32:16;;;;;;;1.20;1.10;;;;;;;7.19;nan;97622.03;5034036;28;20225;-70
2022/11/20 11:34:42;;;;;;;1.20;1.10;;;;;;;7.19;nan;97616.75;5033764;28;20202;-71
2022/11/20 11:37:18;;;;;;;1.40;1.20;;;;;;;7.24;nan;97615.06;5033573;28;20246;-70
2022/11/20 11:39:47;;;;;;;1.13;1.10;;;;;;;7.29;nan;97612.59;5033563;28;20233;-70
2022/11/20 11:42:19;;;;;;;1.33;1.00;;;;;;;7.39;nan;97612.19;5033260;28;20232;-70
2022/11/20 11:45:05;;;;;;;2.20;1.30;;;;;;;7.46;nan;97602.41;5033293;28;20561;-70
2022/11/20 11:47:44;;;;;;;2.80;1.20;;;;;;;7.43;nan;97600.16;5033319;28;20190;-71
2022/11/20 11:50:10;;;;;;;1.80;1.70;;;;;;;7.55;nan;97601.13;5033845;28;20193;-71
2022/11/20 11:52:52;;;;;;;3.23;1.30;;;;;;;7.57;nan;97591.97;5033346;28;20213;-71
2022/11/20 11:55:46;;;;;;;1.27;1.00;;;;;;;7.64;nan;97589.28;5033667;28;20211;-71
2022/11/20 11:58:41;;;;;;;1.43;1.13;;;;;;;7.71;nan;97590.06;5032982;28;20684;-71
2022/11/20 12:01:13;;;;;;;2.20;1.27;;;;;;;7.84;nan;97589.97;5032952;28;20236;-71
2022/11/20 12:03:43;;;;;;;2.93;1.53;;;;;;;7.88;nan;97583.25;5033291;28;20191;-71
2022/11/20 12:06:14;;;;;;;1.67;1.20;;;;;;;8.03;nan;97584.56;5033451;28;20190;-71
2022/11/20 12:08:47;;;;;;;1.67;1.27;;;;;;;8.00;nan;97584.97;5032177;28;20194;-71
2022/11/20 12:11:20;;;;;;;2.50;1.60;;;;;;;8.03;nan;97583.75;5032509;28;20238;-70
2022/11/20 12:14:23;;;;;;;2.07;1.10;;;;;;;8.08;nan;97582.09;5033075;28;20190;-70
2022/11/20 12:16:52;;;;;;;1.83;0.90;;;;;;;8.10;nan;97584.53;5033125;28;20194;-70